createdAt,value
2023-05-06T00:02:08.283Z,99.90
2023-05-06T00:04:35.150Z,99.90
2023-05-06T00:07:02.283Z,99.90
2023-05-06T00:09:29.015Z,99.90
2023-05-06T00:11:56.025Z,99.90
2023-05-06T00:14:22.868Z,99.90
2023-05-06T00:16:50.930Z,99.90
2023-05-06T00:19:17.761Z,99.90
2023-05-06T00:21:44.436Z,99.90
2023-05-06T00:24:11.409Z,99.90
2023-05-06T00:26:38.156Z,99.90
2023-05-06T00:29:04.914Z,99.90
2023-05-06T00:31:31.583Z,99.90
2023-05-06T00:33:58.291Z,99.90
2023-05-06T00:36:25.080Z,99.90
2023-05-06T00:38:51.756Z,99.90
2023-05-06T00:41:18.637Z,99.90
2023-05-06T00:43:45.604Z,99.90
2023-05-06T00:46:16.270Z,99.90
2023-05-06T00:48:44.502Z,99.90
2023-05-06T00:51:12.622Z,99.90
2023-05-06T00:53:40.113Z,99.90
2023-05-06T00:56:07.465Z,99.90
2023-05-06T00:58:34.996Z,99.90
2023-05-06T01:01:02.215Z,99.90
2023-05-06T01:03:29.290Z,99.90
2023-05-06T01:08:57.505Z,99.90
2023-05-06T01:11:47.115Z,99.90
2023-05-06T01:14:26.336Z,99.90
2023-05-06T01:16:58.132Z,99.90
2023-05-06T01:19:37.147Z,99.90
2023-05-06T01:22:06.160Z,99.90
2023-05-06T01:24:37.743Z,99.90
2023-05-06T01:27:04.510Z,99.90
2023-05-06T01:29:31.944Z,99.90
2023-05-06T01:32:15.136Z,99.90
2023-05-06T01:34:52.869Z,99.90
2023-05-06T01:37:32.314Z,99.90
2023-05-06T01:40:00.667Z,99.90
2023-05-06T01:42:28.890Z,99.90
2023-05-06T01:44:57.538Z,99.90
2023-05-06T01:47:25.238Z,99.90
2023-05-06T01:49:52.433Z,99.90
2023-05-06T01:52:21.368Z,99.90
2023-05-06T01:54:48.058Z,99.90
2023-05-06T01:57:14.740Z,99.90
2023-05-06T01:59:41.413Z,99.90
2023-05-06T02:02:08.203Z,99.90
2023-05-06T02:04:34.946Z,99.90
2023-05-06T02:07:01.763Z,99.90
2023-05-06T02:09:28.422Z,99.90
2023-05-06T02:11:55.075Z,99.90
2023-05-06T02:14:21.815Z,99.90
2023-05-06T02:16:48.512Z,99.90
2023-05-06T02:19:18.002Z,99.90
2023-05-06T02:21:44.882Z,99.90
2023-05-06T02:24:11.493Z,99.90
2023-05-06T02:26:38.235Z,99.90
2023-05-06T02:29:04.916Z,99.90
2023-05-06T02:31:33.132Z,99.90
2023-05-06T02:33:59.799Z,99.90
2023-05-06T02:36:27.514Z,99.90
2023-05-06T02:38:54.278Z,99.90
2023-05-06T02:41:21.305Z,99.90
2023-05-06T02:43:48.039Z,99.90
2023-05-06T02:46:14.764Z,99.90
2023-05-06T02:48:41.998Z,99.90
2023-05-06T02:51:08.728Z,99.90
2023-05-06T02:53:35.358Z,99.90
2023-05-06T02:56:02.005Z,99.90
2023-05-06T02:58:29.175Z,99.90
2023-05-06T03:00:55.961Z,99.90
2023-05-06T03:03:22.924Z,99.90
2023-05-06T03:05:49.589Z,99.90
2023-05-06T03:08:16.741Z,99.90
2023-05-06T03:10:43.389Z,99.90
2023-05-06T03:13:10.119Z,99.90
2023-05-06T03:15:39.816Z,99.90
2023-05-06T03:18:06.481Z,99.90
2023-05-06T03:20:34.024Z,99.90
2023-05-06T03:23:00.877Z,99.90
2023-05-06T03:25:27.600Z,99.90
2023-05-06T03:27:54.235Z,99.90
2023-05-06T03:30:21.033Z,99.90
2023-05-06T03:32:48.759Z,99.90
2023-05-06T03:35:16.622Z,99.90
2023-05-06T03:37:43.300Z,99.90
2023-05-06T03:40:10.146Z,99.90
2023-05-06T03:42:36.862Z,99.90
2023-05-06T03:45:04.934Z,99.90
2023-05-06T03:47:31.798Z,99.90
2023-05-06T03:49:59.324Z,99.90
2023-05-06T03:52:26.299Z,99.90
2023-05-06T03:54:53.031Z,99.90
2023-05-06T03:57:19.700Z,99.90
2023-05-06T03:59:46.360Z,99.90
2023-05-06T04:02:13.173Z,99.90
2023-05-06T04:04:39.880Z,99.90
2023-05-06T04:07:06.734Z,99.90
2023-05-06T04:09:33.427Z,99.90
2023-05-06T04:12:00.158Z,99.90
2023-05-06T04:14:26.908Z,99.90
2023-05-06T04:16:53.893Z,99.90
2023-05-06T04:19:21.533Z,99.90
2023-05-06T04:21:48.278Z,99.90
2023-05-06T04:24:16.292Z,99.90
2023-05-06T04:26:43.056Z,99.90
2023-05-06T04:29:09.990Z,99.90
2023-05-06T04:31:36.933Z,99.90
2023-05-06T04:34:04.313Z,99.90
2023-05-06T04:36:31.012Z,99.90
2023-05-06T04:38:58.244Z,99.90
2023-05-06T04:41:25.947Z,99.90
2023-05-06T04:43:52.638Z,99.90
2023-05-06T04:46:19.506Z,99.90
2023-05-06T04:48:46.339Z,99.90
2023-05-06T04:51:13.151Z,99.90
2023-05-06T04:53:40.722Z,99.90
2023-05-06T04:56:07.954Z,99.90
2023-05-06T04:58:34.602Z,99.90
2023-05-06T05:01:04.693Z,99.90
2023-05-06T05:03:31.771Z,99.90
2023-05-06T05:05:58.569Z,99.90
2023-05-06T05:08:25.234Z,99.90
2023-05-06T05:10:51.880Z,99.90
2023-05-06T05:13:19.303Z,99.90
2023-05-06T05:15:48.834Z,99.90
2023-05-06T05:18:15.581Z,99.90
2023-05-06T05:20:42.250Z,99.90
2023-05-06T05:23:08.900Z,99.90
2023-05-06T05:25:35.629Z,99.90
2023-05-06T05:28:02.350Z,99.90
2023-05-06T05:30:29.010Z,99.90
2023-05-06T05:32:56.091Z,99.90
2023-05-06T05:35:22.833Z,99.90
2023-05-06T05:37:49.505Z,99.90
2023-05-06T05:40:16.359Z,99.90
2023-05-06T05:42:43.067Z,99.90
2023-05-06T05:45:10.382Z,99.90
2023-05-06T05:47:37.282Z,99.90
2023-05-06T05:50:04.392Z,99.90
2023-05-06T05:52:31.451Z,99.90
2023-05-06T05:54:58.080Z,99.90
2023-05-06T05:57:24.729Z,99.90
2023-05-06T05:59:51.347Z,99.90
2023-05-06T06:02:18.079Z,99.90
2023-05-06T06:04:44.772Z,99.90
2023-05-06T06:07:11.540Z,99.90
2023-05-06T06:09:38.247Z,99.90
2023-05-06T06:12:05.164Z,99.90
2023-05-06T06:14:31.782Z,99.90
2023-05-06T06:16:58.508Z,99.90
2023-05-06T06:19:25.213Z,99.90
2023-05-06T06:21:52.115Z,99.90
2023-05-06T06:24:18.754Z,99.90
2023-05-06T06:26:45.536Z,99.90
2023-05-06T06:29:12.760Z,99.90
2023-05-06T06:31:40.646Z,99.90
2023-05-06T06:34:09.005Z,99.90
2023-05-06T06:36:35.754Z,99.90
2023-05-06T06:39:02.415Z,99.90
2023-05-06T06:41:29.118Z,99.90
2023-05-06T06:43:55.854Z,99.90
2023-05-06T06:46:22.635Z,99.90
2023-05-06T06:48:49.353Z,99.90
2023-05-06T06:51:16.087Z,99.90
2023-05-06T06:53:42.571Z,99.90
2023-05-06T06:56:12.224Z,99.90
2023-05-06T06:58:39.038Z,99.90
2023-05-06T07:01:06.004Z,99.90
2023-05-06T07:03:32.793Z,99.90
2023-05-06T07:05:59.498Z,99.90
2023-05-06T07:08:26.198Z,99.90
2023-05-06T07:10:53.004Z,99.90
2023-05-06T07:13:22.935Z,99.90
2023-05-06T07:15:50.068Z,99.90
2023-05-06T07:18:16.805Z,99.90
2023-05-06T07:20:43.573Z,99.90
2023-05-06T07:23:10.251Z,99.90
2023-05-06T07:25:37.047Z,99.90
2023-05-06T07:28:03.820Z,99.90
2023-05-06T07:30:30.472Z,99.90
2023-05-06T07:32:57.218Z,99.90
2023-05-06T07:35:23.969Z,99.90
2023-05-06T07:37:50.712Z,99.90
2023-05-06T07:40:17.410Z,99.90
2023-05-06T07:42:44.207Z,99.90
2023-05-06T07:45:11.314Z,99.90
2023-05-06T07:47:38.364Z,99.90
2023-05-06T07:50:06.769Z,99.90
2023-05-06T07:52:34.109Z,99.90
2023-05-06T07:55:00.895Z,99.90
2023-05-06T07:57:27.811Z,99.90
2023-05-06T07:59:54.533Z,99.90
2023-05-06T08:02:21.312Z,99.90
2023-05-06T08:04:48.991Z,99.90
2023-05-06T08:07:17.782Z,99.90
2023-05-06T08:09:44.572Z,99.90
2023-05-06T08:12:11.302Z,99.90
2023-05-06T08:14:38.119Z,99.90
2023-05-06T08:17:04.837Z,99.90
2023-05-06T08:19:31.558Z,99.90
2023-05-06T08:21:58.207Z,99.90
2023-05-06T08:24:24.875Z,99.90
2023-05-06T08:26:51.691Z,99.90
2023-05-06T08:29:19.323Z,99.90
2023-05-06T08:31:46.833Z,98.90
2023-05-06T08:34:13.587Z,98.00
2023-05-06T08:36:40.286Z,97.30
2023-05-06T08:39:06.988Z,95.10
2023-05-06T08:41:38.174Z,93.50
2023-05-06T08:44:05.580Z,92.80
2023-05-06T08:46:32.479Z,92.30
2023-05-06T08:49:00.292Z,91.30
2023-05-06T08:51:31.740Z,91.80
2023-05-06T08:54:01.711Z,89.90
2023-05-06T08:56:32.725Z,91.00
2023-05-06T08:59:01.181Z,86.40
2023-05-06T09:01:28.755Z,81.50
2023-05-06T09:03:56.821Z,80.60
2023-05-06T09:06:24.181Z,81.60
2023-05-06T09:08:51.174Z,81.00
2023-05-06T09:11:24.668Z,80.40
2023-05-06T09:14:06.788Z,75.20
2023-05-06T09:16:33.540Z,75.80
2023-05-06T09:19:00.266Z,74.60
2023-05-06T09:21:34.268Z,72.70
2023-05-06T09:24:01.833Z,74.60
2023-05-06T09:26:32.782Z,76.10
2023-05-06T09:29:00.449Z,73.50
2023-05-06T09:31:28.391Z,73.60
2023-05-06T09:33:57.112Z,71.60
2023-05-06T09:36:30.813Z,70.30
2023-05-06T09:38:57.731Z,72.10
2023-05-06T09:41:25.634Z,70.70
2023-05-06T09:43:54.064Z,65.30
2023-05-06T09:46:22.995Z,65.70
2023-05-06T09:48:51.577Z,64.30
2023-05-06T09:51:19.136Z,62.30
2023-05-06T09:53:46.549Z,61.00
2023-05-06T09:56:14.819Z,62.20
2023-05-06T09:58:42.011Z,58.70
2023-05-06T10:01:09.265Z,60.10
2023-05-06T10:03:36.502Z,55.00
2023-05-06T10:06:05.936Z,55.60
2023-05-06T10:08:35.077Z,55.20
2023-05-06T10:11:02.116Z,53.20
2023-05-06T10:13:30.037Z,52.10
2023-05-06T10:15:57.115Z,52.50
2023-05-06T10:18:27.978Z,52.70
2023-05-06T10:20:55.695Z,55.70
2023-05-06T10:23:25.451Z,58.00
2023-05-06T10:25:56.276Z,58.50
2023-05-06T10:28:30.718Z,56.60
2023-05-06T10:30:59.489Z,53.20
2023-05-06T10:33:27.969Z,51.10
2023-05-06T10:36:07.895Z,47.10
2023-05-06T10:38:41.008Z,45.60
2023-05-06T10:41:09.572Z,47.80
2023-05-06T10:43:41.539Z,51.60
2023-05-06T10:46:11.414Z,52.50
2023-05-06T10:48:59.023Z,51.10
2023-05-06T10:51:28.210Z,51.10
2023-05-06T10:54:21.637Z,50.50
2023-05-06T10:56:48.274Z,46.40
2023-05-06T10:59:15.739Z,44.20
2023-05-06T11:01:44.752Z,41.70
2023-05-06T11:04:14.304Z,40.40
2023-05-06T11:06:44.465Z,40.40
2023-05-06T11:09:31.054Z,40.30
2023-05-06T11:12:07.149Z,41.70
2023-05-06T11:14:35.954Z,40.60
2023-05-06T11:17:08.227Z,41.90
2023-05-06T11:19:36.609Z,42.90
2023-05-06T11:22:04.629Z,45.60
2023-05-06T11:24:41.284Z,47.50
2023-05-06T11:27:09.365Z,49.10
2023-05-06T11:29:36.334Z,50.10
2023-05-06T11:32:05.300Z,49.30
2023-05-06T11:34:32.870Z,43.20
2023-05-06T11:37:02.595Z,41.50
2023-05-06T11:39:33.256Z,41.20
2023-05-06T11:42:05.733Z,43.00
2023-05-06T11:44:35.039Z,44.10
2023-05-06T11:47:05.699Z,46.40
2023-05-06T11:49:52.030Z,49.30
2023-05-06T11:52:21.443Z,50.70
2023-05-06T11:54:50.704Z,51.00
2023-05-06T11:57:17.429Z,51.40
2023-05-06T11:59:44.095Z,51.70
2023-05-06T12:02:14.171Z,52.50
2023-05-06T12:04:42.363Z,48.80
2023-05-06T12:07:10.985Z,43.80
2023-05-06T12:09:40.476Z,40.90
2023-05-06T12:12:07.808Z,39.10
2023-05-06T12:14:36.587Z,36.40
2023-05-06T12:17:04.159Z,33.00
2023-05-06T12:19:32.601Z,33.60
2023-05-06T12:22:20.779Z,34.30
2023-05-06T12:24:48.590Z,36.10
2023-05-06T12:27:28.548Z,37.10
2023-05-06T12:29:55.372Z,40.00
2023-05-06T12:32:22.200Z,43.00
2023-05-06T12:34:48.980Z,42.60
2023-05-06T12:37:31.752Z,43.30
2023-05-06T12:39:59.453Z,39.30
2023-05-06T12:42:26.777Z,36.50
2023-05-06T12:44:53.539Z,33.50
2023-05-06T12:47:22.897Z,32.40
2023-05-06T12:49:52.702Z,30.30
2023-05-06T12:52:21.548Z,31.00
2023-05-06T12:54:49.349Z,32.50
2023-05-06T12:57:16.650Z,33.80
2023-05-06T12:59:45.595Z,36.10
2023-05-06T13:02:12.964Z,36.60
2023-05-06T13:04:40.749Z,37.60
2023-05-06T13:07:07.525Z,39.00
2023-05-06T13:09:34.415Z,39.00
2023-05-06T13:12:02.371Z,37.80
2023-05-06T13:14:29.043Z,35.60
2023-05-06T13:16:55.925Z,35.60
2023-05-06T13:19:32.156Z,34.00
2023-05-06T13:22:00.529Z,35.30
2023-05-06T13:24:27.605Z,36.70
2023-05-06T13:26:56.026Z,37.60
2023-05-06T13:29:23.525Z,38.50
2023-05-06T13:31:50.969Z,39.60
2023-05-06T13:34:17.730Z,39.10
2023-05-06T13:36:44.486Z,39.80
2023-05-06T13:39:11.155Z,39.90
2023-05-06T13:41:37.908Z,39.90
2023-05-06T13:44:04.979Z,37.80
2023-05-06T13:46:31.736Z,37.90
2023-05-06T13:48:58.430Z,34.60
2023-05-06T13:51:29.854Z,32.70
2023-05-06T13:53:56.715Z,32.90
2023-05-06T13:56:23.560Z,33.50
2023-05-06T13:58:50.415Z,33.80
2023-05-06T14:01:17.176Z,32.70
2023-05-06T14:03:43.877Z,31.20
2023-05-06T14:06:11.495Z,31.60
2023-05-06T14:08:38.215Z,31.80
2023-05-06T14:11:05.166Z,31.30
2023-05-06T14:13:33.505Z,34.00
2023-05-06T14:16:00.710Z,34.70
2023-05-06T14:18:28.133Z,36.30
2023-05-06T14:20:55.272Z,38.10
2023-05-06T14:23:22.011Z,37.90
2023-05-06T14:25:49.448Z,38.50
2023-05-06T14:28:16.191Z,39.40
2023-05-06T14:30:44.424Z,40.40
2023-05-06T14:33:11.549Z,39.40
2023-05-06T14:35:42.436Z,38.00
2023-05-06T14:38:10.270Z,39.30
2023-05-06T14:40:38.678Z,38.30
2023-05-06T14:43:07.238Z,36.50
2023-05-06T14:45:34.006Z,34.90
2023-05-06T14:48:00.837Z,35.20
2023-05-06T14:50:27.512Z,33.50
2023-05-06T14:52:54.256Z,31.70
2023-05-06T14:55:21.084Z,30.70
2023-05-06T14:57:48.041Z,31.60
2023-05-06T15:00:16.173Z,30.70
2023-05-06T15:02:42.920Z,31.70
2023-05-06T15:05:10.752Z,28.90
2023-05-06T15:07:37.856Z,31.50
2023-05-06T15:10:05.121Z,29.60
2023-05-06T15:12:31.902Z,29.50
2023-05-06T15:14:58.658Z,29.70
2023-05-06T15:17:25.541Z,30.60
2023-05-06T15:19:52.333Z,28.50
2023-05-06T15:22:18.987Z,26.50
2023-05-06T15:24:45.675Z,26.60
2023-05-06T15:27:12.363Z,27.50
2023-05-06T15:29:38.860Z,27.80
2023-05-06T15:32:06.079Z,28.50
2023-05-06T15:34:33.031Z,28.70
2023-05-06T15:37:01.816Z,29.30
2023-05-06T15:39:28.608Z,29.90
2023-05-06T15:41:58.105Z,29.50
2023-05-06T15:46:53.319Z,29.40
2023-05-06T15:49:48.851Z,29.00
2023-05-06T15:52:06.691Z,29.30
2023-05-06T15:54:36.218Z,28.30
2023-05-06T15:57:07.141Z,28.70
2023-05-06T15:59:34.154Z,29.30
2023-05-06T16:02:26.452Z,31.60
2023-05-06T16:04:47.820Z,35.00
2023-05-06T16:07:15.494Z,37.20
2023-05-06T16:09:42.923Z,40.20
2023-05-06T16:12:09.986Z,44.10
2023-05-06T16:14:36.714Z,44.90
2023-05-06T16:17:03.449Z,46.10
2023-05-06T16:19:32.133Z,47.20
2023-05-06T16:21:58.835Z,47.70
2023-05-06T16:24:25.566Z,46.70
2023-05-06T16:26:52.312Z,47.60
2023-05-06T16:29:20.646Z,48.10
2023-05-06T16:31:48.553Z,49.20
2023-05-06T16:34:15.403Z,50.90
2023-05-06T16:36:42.147Z,51.60
2023-05-06T16:39:08.867Z,51.80
2023-05-06T16:41:35.566Z,52.50
2023-05-06T16:44:02.233Z,53.60
2023-05-06T16:46:28.986Z,54.30
2023-05-06T16:48:55.886Z,54.70
2023-05-06T16:51:22.761Z,54.80
2023-05-06T16:53:49.487Z,53.40
2023-05-06T16:56:16.198Z,53.90
2023-05-06T16:58:42.992Z,54.10
2023-05-06T17:01:09.892Z,53.70
2023-05-06T17:03:37.784Z,53.60
2023-05-06T17:06:05.078Z,54.20
2023-05-06T17:08:36.139Z,54.40
2023-05-06T17:11:06.652Z,54.60
2023-05-06T17:13:33.914Z,54.50
2023-05-06T17:16:00.804Z,55.10
2023-05-06T17:18:27.580Z,55.90
2023-05-06T17:20:57.046Z,56.00
2023-05-06T17:23:24.368Z,59.40
2023-05-06T17:25:51.585Z,60.10
2023-05-06T17:28:19.007Z,60.80
2023-05-06T17:30:46.511Z,60.90
2023-05-06T17:33:13.240Z,61.90
2023-05-06T17:35:40.054Z,58.70
2023-05-06T17:38:06.795Z,60.00
2023-05-06T17:40:33.623Z,62.00
2023-05-06T17:43:00.595Z,62.40
2023-05-06T17:45:30.243Z,62.50
2023-05-06T17:47:56.945Z,63.60
2023-05-06T17:50:23.922Z,64.60
2023-05-06T17:52:52.638Z,65.60
2023-05-06T17:55:21.502Z,66.20
2023-05-06T17:57:49.182Z,67.30
2023-05-06T18:00:16.884Z,67.70
2023-05-06T18:02:44.587Z,68.70
2023-05-06T18:05:11.915Z,69.30
2023-05-06T18:07:39.141Z,70.30
2023-05-06T18:10:06.680Z,70.90
2023-05-06T18:12:33.435Z,71.30
2023-05-06T18:15:00.591Z,70.90
2023-05-06T18:17:27.407Z,71.80
2023-05-06T18:19:54.158Z,72.30
2023-05-06T18:22:20.837Z,72.90
2023-05-06T18:24:47.560Z,73.50
2023-05-06T18:27:14.201Z,74.70
2023-05-06T18:29:41.346Z,75.60
2023-05-06T18:32:08.388Z,76.60
2023-05-06T18:34:35.459Z,77.70
2023-05-06T18:37:02.258Z,78.80
2023-05-06T18:39:28.914Z,79.80
2023-05-06T18:41:55.664Z,80.00
2023-05-06T18:44:22.341Z,81.10
2023-05-06T18:46:49.036Z,82.70
2023-05-06T18:49:15.714Z,82.70
2023-05-06T18:51:42.398Z,83.70
2023-05-06T18:54:09.185Z,85.90
2023-05-06T18:56:36.935Z,87.30
2023-05-06T18:59:03.767Z,89.10
2023-05-06T19:01:30.627Z,90.40
2023-05-06T19:03:57.487Z,91.90
2023-05-06T19:06:24.172Z,92.40
2023-05-06T19:08:50.866Z,93.20
2023-05-06T19:11:19.330Z,94.30
2023-05-06T19:13:46.421Z,95.50
2023-05-06T19:16:13.831Z,96.00
2023-05-06T19:18:40.671Z,97.00
2023-05-06T19:21:10.825Z,98.10
2023-05-06T19:23:37.689Z,99.50
2023-05-06T19:26:06.766Z,99.80
2023-05-06T19:28:34.366Z,99.90
2023-05-06T19:31:01.532Z,99.90
2023-05-06T19:33:28.542Z,99.90
2023-05-06T19:35:55.232Z,99.90
2023-05-06T19:38:21.973Z,99.90
2023-05-06T19:40:48.683Z,99.90
2023-05-06T19:43:17.643Z,99.90
2023-05-06T19:45:44.282Z,99.90
2023-05-06T19:48:12.767Z,99.90
2023-05-06T19:50:39.480Z,99.90
2023-05-06T19:53:06.116Z,99.90
2023-05-06T19:55:32.824Z,99.90
2023-05-06T19:57:59.835Z,99.90
2023-05-06T20:00:28.105Z,99.90
2023-05-06T20:02:57.235Z,99.90
2023-05-06T20:05:24.847Z,99.90
2023-05-06T20:07:51.599Z,99.90
2023-05-06T20:10:18.338Z,99.90
2023-05-06T20:12:45.357Z,99.90
2023-05-06T20:15:12.476Z,99.90
2023-05-06T20:17:39.485Z,99.90
2023-05-06T20:20:10.816Z,99.90
2023-05-06T20:22:38.871Z,99.90
2023-05-06T20:25:11.434Z,99.90
2023-05-06T20:27:39.098Z,99.90
2023-05-06T20:30:07.973Z,99.90
2023-05-06T20:32:35.462Z,99.90
2023-05-06T20:35:02.252Z,99.90
2023-05-06T20:37:30.514Z,99.90
2023-05-06T20:39:57.906Z,99.90
2023-05-06T20:42:24.930Z,99.90
2023-05-06T20:44:52.092Z,99.90
2023-05-06T20:47:19.514Z,99.90
2023-05-06T20:49:46.386Z,99.90
2023-05-06T20:52:14.602Z,99.90
2023-05-06T20:54:43.969Z,99.90
2023-05-06T20:57:11.708Z,99.90
2023-05-06T20:59:38.468Z,99.90
2023-05-06T21:02:05.526Z,99.90
2023-05-06T21:04:32.470Z,99.90
2023-05-06T21:06:59.729Z,99.90
2023-05-06T21:09:27.895Z,99.90
2023-05-06T21:11:56.040Z,99.90
2023-05-06T21:14:24.783Z,99.90
2023-05-06T21:16:52.152Z,99.90
2023-05-06T21:19:19.420Z,99.90
2023-05-06T21:21:46.254Z,99.90
2023-05-06T21:24:13.142Z,99.90
2023-05-06T21:26:39.891Z,99.90
2023-05-06T21:29:06.588Z,99.90
2023-05-06T21:31:33.491Z,99.90
2023-05-06T21:34:00.318Z,99.90
2023-05-06T21:36:27.202Z,99.90
2023-05-06T21:39:06.856Z,99.90
2023-05-06T21:41:35.629Z,99.90
2023-05-06T21:44:04.290Z,99.90
2023-05-06T21:46:31.901Z,99.90
2023-05-06T21:48:59.462Z,99.90
2023-05-06T21:51:28.279Z,99.90
2023-05-06T21:53:55.246Z,99.90
2023-05-06T21:56:22.194Z,99.90
2023-05-06T21:58:49.092Z,99.90
2023-05-06T22:01:16.113Z,99.90
2023-05-06T22:03:43.722Z,99.90
2023-05-06T22:06:10.686Z,99.90
2023-05-06T22:08:37.324Z,99.90
2023-05-06T22:11:04.230Z,99.90
2023-05-06T22:13:30.916Z,99.90
2023-05-06T22:15:57.814Z,99.90
2023-05-06T22:18:25.640Z,99.90
2023-05-06T22:20:56.663Z,99.90
2023-05-06T22:23:24.390Z,99.90
2023-05-06T22:25:52.610Z,99.90
2023-05-06T22:28:19.781Z,99.90
2023-05-06T22:30:46.610Z,99.90
2023-05-06T22:33:13.388Z,99.90
2023-05-06T22:35:40.307Z,99.90
2023-05-06T22:38:08.055Z,99.90
2023-05-06T22:40:34.736Z,99.90
2023-05-06T22:43:01.424Z,99.90
2023-05-06T22:45:28.159Z,99.90
2023-05-06T22:47:54.914Z,99.90
2023-05-06T22:50:21.631Z,99.90
2023-05-06T22:52:48.282Z,99.90
2023-05-06T22:55:15.967Z,99.90
2023-05-06T22:57:42.693Z,99.90
2023-05-06T23:00:12.300Z,99.90
2023-05-06T23:02:39.082Z,99.90
2023-05-06T23:05:06.511Z,99.90
2023-05-06T23:07:33.321Z,99.90
2023-05-06T23:10:00.085Z,99.90
2023-05-06T23:12:28.049Z,99.90
2023-05-06T23:14:54.583Z,99.90
2023-05-06T23:17:21.354Z,99.90
2023-05-06T23:19:48.073Z,99.90
2023-05-06T23:22:14.728Z,99.90
2023-05-06T23:24:42.178Z,99.90
2023-05-06T23:27:09.014Z,99.90
2023-05-06T23:29:35.728Z,99.90
2023-05-06T23:32:02.949Z,99.90
2023-05-06T23:34:29.605Z,99.90
2023-05-06T23:36:56.571Z,99.90
2023-05-06T23:39:23.344Z,99.90
2023-05-06T23:41:49.995Z,99.90
2023-05-06T23:44:16.780Z,99.90
2023-05-06T23:46:43.923Z,99.90
2023-05-06T23:49:10.613Z,99.90
2023-05-06T23:51:37.308Z,99.90
2023-05-06T23:54:04.133Z,99.90
2023-05-06T23:56:30.776Z,99.90
2023-05-06T23:58:57.425Z,99.90
